EDDR/SCN METAR and TAF weather

Enter ICAO airport designator
Station Type Date Time Source
EDDR METAR 2018/10/19 15:20 UTC NOAA

EDDR 191520Z 05006KT 010V080 CAVOK 18/10 Q1022 NOSIG


Station Type Date Time Source
EDDR Decoded METAR 2018/10/19 15:20 UTC NOAA

Saarbruecken / Ensheim, Germany (EDDR) 49-13N 007-07E 320M
Oct 19, 2018 - 11:20 AM EDT / 2018.10.19 1520 UTC
Wind: from the NE (050 degrees) at 7 MPH (6 KT) (direction variable):0
Visibility: greater than 7 mile(s):0
Temperature: 64 F (18 C)
Dew Point: 50 F (10 C)
Relative Humidity: 59%
Pressure (altimeter): 30.18 in. Hg (1022 hPa)
ob: EDDR 191520Z 05006KT 010V080 CAVOK 18/10 Q1022 NOSIG
cycle: 15

Station Type Date Time Source
EDDR TAF 2018/10/19 12:27 UTC NOAA

TAF EDDR 191100Z 1912/2012 05009KT CAVOK


Example: see airport list